createdAt,value
2018-03-23T00:01:16.558Z,4.17
2018-03-23T00:03:47.608Z,3.77
2018-03-23T00:06:18.005Z,4.40
2018-03-23T00:08:49.523Z,4.20
2018-03-23T00:11:19.864Z,3.80
2018-03-23T00:13:50.180Z,4.33
2018-03-23T00:16:20.410Z,4.50
2018-03-23T00:18:50.763Z,4.30
2018-03-23T00:21:21.363Z,4.60
2018-03-23T00:23:51.817Z,4.70
2018-03-23T00:26:22.253Z,4.50
2018-03-23T00:28:52.325Z,3.57
2018-03-23T00:31:24.131Z,4.30
2018-03-23T00:33:55.291Z,4.53
2018-03-23T00:36:26.001Z,4.17
2018-03-23T00:38:56.306Z,4.47
2018-03-23T00:41:26.745Z,4.27
2018-03-23T00:43:57.031Z,3.77
2018-03-23T00:46:27.330Z,4.17
2018-03-23T00:48:58.409Z,5.00
2018-03-23T00:51:28.836Z,4.30
2018-03-23T00:53:59.142Z,4.20
2018-03-23T00:56:30.312Z,4.83
2018-03-23T00:59:00.901Z,4.97
2018-03-23T01:01:31.734Z,4.87
2018-03-23T01:04:02.999Z,4.40
2018-03-23T01:06:33.408Z,5.10
2018-03-23T01:09:03.914Z,4.90
2018-03-23T01:11:33.997Z,6.60
2018-03-23T01:14:04.037Z,5.67
2018-03-23T01:16:34.794Z,4.73
2018-03-23T01:19:05.654Z,6.20
2018-03-23T01:21:36.947Z,4.70
2018-03-23T01:24:07.168Z,5.83
2018-03-23T01:26:38.122Z,5.37
2018-03-23T01:29:08.714Z,6.40
2018-03-23T01:31:39.039Z,4.73
2018-03-23T01:34:09.865Z,5.87
2018-03-23T01:36:39.926Z,5.50
2018-03-23T01:39:10.259Z,5.57
2018-03-23T01:41:40.273Z,5.80
2018-03-23T01:44:10.871Z,6.90
2018-03-23T01:46:41.303Z,6.63
2018-03-23T01:49:11.652Z,6.60
2018-03-23T01:51:41.918Z,6.70
2018-03-23T01:54:12.126Z,6.57
2018-03-23T01:56:43.419Z,7.00
2018-03-23T01:59:13.429Z,6.17
2018-03-23T02:01:44.155Z,7.97
2018-03-23T02:04:14.587Z,7.50
2018-03-23T02:06:45.759Z,6.53
2018-03-23T02:09:16.400Z,7.20
2018-03-23T02:11:47.151Z,7.73
2018-03-23T02:14:17.115Z,9.07
2018-03-23T02:16:47.069Z,8.20
2018-03-23T02:19:17.864Z,7.80
2018-03-23T02:21:48.191Z,7.57
2018-03-23T02:24:18.150Z,7.13
2018-03-23T02:26:49.140Z,7.60
2018-03-23T02:29:19.808Z,8.07
2018-03-23T02:31:50.897Z,7.40
2018-03-23T02:34:21.147Z,8.90
2018-03-23T02:36:51.652Z,7.00
2018-03-23T02:39:21.827Z,6.40
2018-03-23T02:41:51.941Z,6.80
2018-03-23T02:44:22.920Z,7.77
2018-03-23T02:46:53.456Z,6.93
2018-03-23T02:49:24.583Z,6.53
2018-03-23T02:51:55.027Z,7.03
2018-03-23T02:54:25.522Z,8.43
2018-03-23T02:56:56.376Z,6.63
2018-03-23T02:59:26.751Z,8.10
2018-03-23T03:01:58.080Z,8.67
2018-03-23T03:04:28.414Z,9.70
2018-03-23T03:06:58.930Z,7.70
2018-03-23T03:09:30.267Z,9.87
2018-03-23T03:12:01.556Z,9.57
2018-03-23T03:14:31.795Z,9.90
2018-03-23T03:17:02.179Z,9.10
2018-03-23T03:19:32.454Z,10.30
2018-03-23T03:22:03.245Z,10.40
2018-03-23T03:24:33.667Z,8.07
2018-03-23T03:27:03.959Z,12.30
2018-03-23T03:29:34.171Z,8.90
2018-03-23T03:32:04.882Z,9.17
2018-03-23T03:34:35.345Z,9.37
2018-03-23T03:37:05.874Z,9.30
2018-03-23T03:39:37.054Z,9.37
2018-03-23T03:42:07.744Z,10.33
2018-03-23T03:44:38.246Z,8.30
2018-03-23T03:47:08.567Z,8.30
2018-03-23T03:49:39.963Z,9.57
2018-03-23T03:52:10.486Z,8.63
2018-03-23T03:54:40.771Z,8.40
2018-03-23T03:57:11.119Z,8.60
2018-03-23T03:59:41.715Z,9.43
2018-03-23T04:02:12.974Z,7.87
2018-03-23T04:04:43.362Z,8.77
2018-03-23T04:07:14.619Z,8.90
2018-03-23T04:09:44.764Z,8.03
2018-03-23T04:12:14.991Z,8.80
2018-03-23T04:14:46.056Z,9.43
2018-03-23T04:17:16.523Z,8.53
2018-03-23T04:19:46.654Z,9.27
2018-03-23T04:22:17.068Z,9.50
2018-03-23T04:24:47.568Z,9.53
2018-03-23T04:27:17.923Z,9.80
2018-03-23T04:29:48.520Z,10.13
2018-03-23T04:32:19.143Z,9.93
2018-03-23T04:34:50.137Z,8.60
2018-03-23T04:37:20.241Z,10.10
2018-03-23T04:39:51.147Z,10.10
2018-03-23T04:42:21.810Z,7.70
2018-03-23T04:44:52.320Z,9.47
2018-03-23T04:47:22.683Z,8.47
2018-03-23T04:49:53.577Z,8.50
2018-03-23T04:52:23.992Z,8.50
2018-03-23T04:54:54.069Z,7.87
2018-03-23T04:57:24.456Z,8.53
2018-03-23T04:59:55.493Z,8.40
2018-03-23T05:02:25.737Z,9.77
2018-03-23T05:04:56.256Z,7.57
2018-03-23T05:07:26.796Z,8.83
2018-03-23T05:09:57.747Z,9.07
2018-03-23T05:12:28.816Z,8.30
2018-03-23T05:14:59.176Z,8.00
2018-03-23T05:17:29.795Z,8.77
2018-03-23T05:20:00.772Z,8.90
2018-03-23T05:22:31.314Z,7.77
2018-03-23T05:25:01.766Z,9.17
2018-03-23T05:27:32.372Z,8.10
2018-03-23T05:30:02.929Z,9.00
2018-03-23T05:32:33.330Z,9.97
2018-03-23T05:35:03.851Z,9.73
2018-03-23T05:37:34.487Z,10.57
2018-03-23T05:40:04.987Z,9.00
2018-03-23T05:42:35.252Z,8.67
2018-03-23T05:45:05.691Z,9.07
2018-03-23T05:47:36.398Z,9.90
2018-03-23T05:50:06.730Z,8.37
2018-03-23T05:52:39.259Z,9.97
2018-03-23T05:55:09.513Z,9.10
2018-03-23T05:57:40.005Z,9.40
2018-03-23T06:00:10.440Z,10.23
2018-03-23T06:02:40.784Z,10.13
2018-03-23T06:05:11.862Z,9.63
2018-03-23T06:07:42.376Z,10.27
2018-03-23T06:10:12.793Z,10.13
2018-03-23T06:12:42.975Z,10.33
2018-03-23T06:15:13.964Z,10.43
2018-03-23T06:17:44.258Z,10.60
2018-03-23T06:20:14.827Z,9.90
2018-03-23T06:22:45.253Z,9.97
2018-03-23T06:25:15.557Z,10.00
2018-03-23T06:27:45.793Z,9.50
2018-03-23T06:30:16.098Z,9.13
2018-03-23T06:32:46.235Z,8.90
2018-03-23T06:35:16.623Z,8.87
2018-03-23T06:37:47.545Z,8.80
2018-03-23T06:40:18.576Z,8.67
2018-03-23T06:42:49.839Z,7.93
2018-03-23T06:45:20.090Z,7.40
2018-03-23T06:47:50.349Z,8.03
2018-03-23T06:50:20.524Z,8.83
2018-03-23T06:54:20.972Z,9.07
2018-03-23T06:56:51.921Z,7.17
2018-03-23T06:59:22.204Z,8.13
2018-03-23T07:01:52.605Z,9.00
2018-03-23T07:04:23.674Z,8.53
2018-03-23T07:06:54.176Z,8.70
2018-03-23T07:09:24.727Z,7.40
2018-03-23T07:11:55.947Z,9.10
2018-03-23T07:14:26.195Z,8.27
2018-03-23T07:16:56.460Z,8.63
2018-03-23T07:19:26.744Z,8.60
2018-03-23T07:21:57.243Z,10.33
2018-03-23T07:24:27.572Z,9.60
2018-03-23T07:26:57.839Z,9.30
2018-03-23T07:29:28.295Z,9.80
2018-03-23T07:31:58.544Z,11.00
2018-03-23T07:34:28.692Z,10.67
2018-03-23T07:36:58.943Z,11.73
2018-03-23T07:39:29.815Z,11.70
2018-03-23T07:42:00.144Z,11.30
2018-03-23T07:44:30.372Z,13.33
2018-03-23T07:47:00.555Z,11.83
2018-03-23T07:49:31.516Z,11.60
2018-03-23T07:52:01.716Z,12.00
2018-03-23T07:54:32.604Z,11.67
2018-03-23T07:57:03.286Z,10.47
2018-03-23T07:59:34.315Z,12.80
2018-03-23T08:02:04.856Z,13.10
2018-03-23T08:04:35.798Z,13.60
2018-03-23T08:07:07.059Z,13.87
2018-03-23T08:09:37.289Z,13.93
2018-03-23T08:12:07.563Z,13.27
2018-03-23T08:14:37.814Z,15.20
2018-03-23T08:17:08.881Z,13.10
2018-03-23T08:19:38.999Z,16.90
2018-03-23T08:22:09.469Z,14.63
2018-03-23T08:24:39.675Z,15.50
2018-03-23T08:27:09.986Z,16.23
2018-03-23T08:29:40.427Z,17.40
2018-03-23T08:32:10.631Z,16.13
2018-03-23T08:34:40.772Z,18.50
2018-03-23T08:37:11.321Z,16.73
2018-03-23T08:39:41.604Z,17.17
2018-03-23T08:42:11.884Z,17.03
2018-03-23T08:44:42.359Z,17.57
2018-03-23T08:47:12.712Z,17.20
2018-03-23T08:49:42.926Z,17.20
2018-03-23T08:52:14.164Z,18.17
2018-03-23T08:54:44.433Z,15.60
2018-03-23T08:57:15.436Z,16.60
2018-03-23T08:59:45.608Z,17.27
2018-03-23T09:02:16.907Z,16.00
2018-03-23T09:04:47.110Z,16.10
2018-03-23T09:07:17.255Z,18.60
2018-03-23T09:09:47.864Z,17.00
2018-03-23T09:12:18.104Z,18.10
2018-03-23T09:14:48.398Z,18.43
2018-03-23T09:17:18.540Z,19.60
2018-03-23T09:19:48.775Z,18.40
2018-03-23T09:22:19.039Z,19.03
2018-03-23T09:24:49.183Z,19.40
2018-03-23T09:27:20.414Z,19.70
2018-03-23T09:29:51.297Z,20.30
2018-03-23T09:32:21.451Z,21.40
2018-03-23T09:34:51.796Z,21.00
2018-03-23T09:37:23.012Z,21.53
2018-03-23T09:39:53.400Z,22.83
2018-03-23T09:42:23.663Z,22.50
2018-03-23T09:44:53.864Z,21.00
2018-03-23T09:47:24.032Z,22.07
2018-03-23T09:49:55.099Z,21.70
2018-03-23T09:52:25.300Z,22.77
2018-03-23T09:54:56.328Z,22.50
2018-03-23T09:57:26.530Z,23.40
2018-03-23T09:59:57.040Z,23.00
2018-03-23T10:02:27.218Z,21.10
2018-03-23T10:04:58.236Z,20.20
2018-03-23T10:07:28.448Z,20.20
2018-03-23T10:09:58.652Z,21.23
2018-03-23T10:12:28.905Z,22.53
2018-03-23T10:14:59.310Z,23.87
2018-03-23T10:17:29.569Z,21.27
2018-03-23T10:20:00.523Z,22.50
2018-03-23T10:22:30.700Z,21.77
2018-03-23T10:25:00.932Z,23.80
2018-03-23T10:27:31.223Z,25.27
2018-03-23T10:30:01.833Z,23.10
2018-03-23T10:32:32.047Z,23.03
2018-03-23T10:35:02.307Z,23.93
2018-03-23T10:37:32.578Z,22.40
2018-03-23T10:40:02.827Z,23.07
2018-03-23T10:42:32.996Z,23.27
2018-03-23T10:45:03.507Z,25.83
2018-03-23T10:47:33.667Z,26.07
2018-03-23T10:50:03.961Z,24.70
2018-03-23T10:52:34.222Z,25.07
2018-03-23T10:55:05.348Z,25.77
2018-03-23T10:57:35.553Z,24.60
2018-03-23T11:00:06.049Z,25.20
2018-03-23T11:02:39.519Z,22.87
2018-03-23T11:05:10.519Z,24.13
2018-03-23T11:07:41.105Z,21.60
2018-03-23T11:10:12.162Z,25.10
2018-03-23T11:12:42.551Z,22.77
2018-03-23T11:15:12.917Z,22.13
2018-03-23T11:17:43.154Z,21.40
2018-03-23T11:20:13.379Z,23.50
2018-03-23T11:22:43.693Z,22.60
2018-03-23T11:25:14.093Z,22.37
2018-03-23T11:27:45.219Z,22.97
2018-03-23T11:30:16.660Z,22.83
2018-03-23T11:32:46.842Z,20.90
2018-03-23T11:35:17.114Z,21.50
2018-03-23T11:37:47.499Z,21.83
2018-03-23T11:40:17.743Z,21.47
2018-03-23T11:42:48.031Z,21.33
2018-03-23T11:45:18.568Z,21.80
2018-03-23T11:47:48.948Z,20.73
2018-03-23T11:50:19.889Z,20.67
2018-03-23T11:52:50.521Z,19.90
2018-03-23T11:55:21.554Z,18.17
2018-03-23T11:57:52.835Z,18.20
2018-03-23T12:00:23.524Z,18.57
2018-03-23T12:02:53.935Z,18.40
2018-03-23T12:05:24.315Z,18.63
2018-03-23T12:07:55.684Z,17.23
2018-03-23T12:10:26.273Z,18.10
2018-03-23T12:12:56.684Z,16.20
2018-03-23T12:15:27.063Z,15.90
2018-03-23T12:17:57.266Z,15.30
2018-03-23T12:20:28.680Z,15.67
2018-03-23T12:22:58.938Z,16.37
2018-03-23T12:25:29.983Z,16.40
2018-03-23T12:28:01.016Z,17.20
2018-03-23T12:30:32.053Z,15.47
2018-03-23T12:33:02.252Z,15.67
2018-03-23T12:35:32.759Z,14.63
2018-03-23T12:38:03.804Z,13.47
2018-03-23T12:40:34.077Z,14.30
2018-03-23T12:43:04.351Z,15.63
2018-03-23T12:45:35.193Z,15.13
2018-03-23T12:48:05.721Z,15.90
2018-03-23T12:50:35.971Z,15.37
2018-03-23T12:53:06.144Z,14.70
2018-03-23T12:55:36.316Z,15.00
2018-03-23T12:58:07.282Z,15.30
2018-03-23T13:00:38.522Z,15.57
2018-03-23T13:03:08.746Z,14.50
2018-03-23T13:05:39.751Z,14.40
2018-03-23T13:08:09.948Z,15.63
2018-03-23T13:10:40.480Z,14.43
2018-03-23T13:13:10.689Z,14.53
2018-03-23T13:15:40.933Z,13.80
2018-03-23T13:18:11.115Z,13.67
2018-03-23T13:20:42.640Z,14.07
2018-03-23T13:23:13.233Z,14.50
2018-03-23T13:25:43.623Z,13.90
2018-03-23T13:28:14.631Z,14.23
2018-03-23T13:30:45.223Z,14.70
2018-03-23T13:33:15.539Z,14.40
2018-03-23T13:35:45.829Z,15.47
2018-03-23T13:38:16.325Z,15.20
2018-03-23T13:40:46.666Z,14.67
2018-03-23T13:43:16.910Z,14.80
2018-03-23T13:45:47.156Z,15.60
2018-03-23T13:48:18.389Z,14.60
2018-03-23T13:50:48.763Z,14.53
2018-03-23T13:53:19.281Z,14.80
2018-03-23T13:55:49.495Z,16.40
2018-03-23T13:58:19.827Z,15.67
2018-03-23T14:00:54.524Z,15.83
2018-03-23T14:03:24.850Z,18.00
2018-03-23T14:05:55.162Z,15.63
2018-03-23T14:08:26.648Z,15.23
2018-03-23T14:10:57.195Z,17.80
2018-03-23T14:13:27.568Z,17.90
2018-03-23T14:15:58.973Z,16.40
2018-03-23T14:18:29.272Z,16.17
2018-03-23T14:20:59.471Z,17.93
2018-03-23T14:23:30.487Z,17.07
2018-03-23T14:26:00.689Z,18.40
2018-03-23T14:28:31.169Z,19.00
2018-03-23T14:31:02.182Z,22.73
2018-03-23T14:33:32.332Z,21.83
2018-03-23T14:36:03.365Z,20.20
2018-03-23T14:38:34.291Z,20.53
2018-03-23T14:41:05.605Z,20.70
2018-03-23T14:43:35.827Z,18.77
2018-03-23T14:46:06.931Z,18.10
2018-03-23T14:48:37.124Z,17.80
2018-03-23T14:51:07.327Z,18.20
2018-03-23T14:53:37.608Z,19.20
2018-03-23T14:56:08.112Z,17.50
2018-03-23T14:58:43.328Z,18.77
2018-03-23T15:01:13.505Z,18.60
2018-03-23T15:03:43.983Z,19.23
2018-03-23T15:06:14.144Z,19.67
2018-03-23T15:08:44.413Z,18.80
2018-03-23T15:11:16.022Z,20.73
2018-03-23T15:13:46.198Z,19.53
2018-03-23T15:16:17.143Z,20.83
2018-03-23T15:18:47.352Z,20.00
2018-03-23T15:21:17.479Z,22.00
2018-03-23T15:23:47.728Z,20.27
2018-03-23T15:26:18.631Z,21.10
2018-03-23T15:28:48.958Z,20.53
2018-03-23T15:31:19.168Z,21.73
2018-03-23T15:33:49.635Z,19.97
2018-03-23T15:36:19.811Z,20.30
2018-03-23T15:38:50.774Z,21.30
2018-03-23T15:41:21.155Z,20.07
2018-03-23T15:43:51.374Z,20.57
2018-03-23T15:46:22.939Z,19.90
2018-03-23T15:48:53.112Z,21.23
2018-03-23T15:51:23.368Z,20.10
2018-03-23T15:53:54.271Z,23.23
2018-03-23T15:56:24.453Z,19.57
2018-03-23T15:58:54.917Z,19.50
2018-03-23T16:01:25.318Z,20.20
2018-03-23T16:03:55.544Z,20.10
2018-03-23T16:06:25.729Z,19.90
2018-03-23T16:08:56.008Z,20.87
2018-03-23T16:11:26.354Z,20.37
2018-03-23T16:13:56.725Z,19.50
2018-03-23T16:16:27.266Z,17.50
2018-03-23T16:18:57.495Z,17.10
2018-03-23T16:21:27.683Z,17.37
2018-03-23T16:23:57.881Z,17.80
2018-03-23T16:26:28.388Z,17.30
2018-03-23T16:28:58.590Z,17.20
2018-03-23T16:31:28.799Z,16.20
2018-03-23T16:33:59.020Z,16.13
2018-03-23T16:36:29.543Z,15.10
2018-03-23T16:39:00.129Z,16.37
2018-03-23T16:41:30.495Z,16.37
2018-03-23T16:44:00.727Z,17.20
2018-03-23T16:46:31.408Z,16.70
2018-03-23T16:49:01.788Z,16.63
2018-03-23T16:51:32.058Z,15.10
2018-03-23T16:54:02.715Z,17.13
2018-03-23T16:56:33.696Z,14.20
2018-03-23T16:59:03.948Z,16.40
2018-03-23T17:01:35.431Z,16.90
2018-03-23T17:04:06.764Z,16.73
2018-03-23T17:06:37.096Z,16.80
2018-03-23T17:09:08.174Z,17.43
2018-03-23T17:11:38.714Z,15.57
2018-03-23T17:14:08.891Z,15.87
2018-03-23T17:16:40.063Z,15.80
2018-03-23T17:19:10.288Z,14.83
2018-03-23T17:21:40.567Z,16.83
2018-03-23T17:24:10.910Z,15.77
2018-03-23T17:26:41.995Z,17.20
2018-03-23T17:29:12.326Z,15.63
2018-03-23T17:31:42.626Z,15.57
2018-03-23T17:34:13.343Z,16.73
2018-03-23T17:36:44.468Z,16.10
2018-03-23T17:39:15.428Z,16.60
2018-03-23T17:43:16.034Z,16.27
2018-03-23T17:45:47.129Z,14.53
2018-03-23T17:48:17.600Z,16.30
2018-03-23T17:50:47.844Z,17.67
2018-03-23T17:53:19.766Z,15.60
2018-03-23T17:55:50.006Z,16.50
2018-03-23T17:58:21.289Z,15.37
2018-03-23T18:00:51.464Z,16.77
2018-03-23T18:03:21.693Z,15.87
2018-03-23T18:05:52.243Z,17.23
2018-03-23T18:10:54.523Z,17.00
2018-03-23T18:13:24.719Z,15.77
2018-03-23T18:15:54.885Z,15.97
2018-03-23T18:18:25.964Z,17.10
2018-03-23T18:20:56.447Z,17.30
2018-03-23T18:23:27.054Z,16.50
2018-03-23T18:27:26.398Z,18.20
2018-03-23T18:29:56.673Z,17.47
2018-03-23T18:32:27.327Z,17.80
2018-03-23T18:34:57.862Z,16.33
2018-03-23T18:37:28.058Z,17.60
2018-03-23T18:41:27.491Z,16.47
2018-03-23T18:43:58.091Z,17.40
2018-03-23T18:46:28.346Z,17.07
2018-03-23T18:48:58.600Z,18.23
2018-03-23T18:51:28.970Z,18.77
2018-03-23T18:53:59.167Z,17.90
2018-03-23T18:56:30.369Z,17.20
2018-03-23T18:59:00.631Z,17.27
2018-03-23T19:01:30.940Z,16.37
2018-03-23T19:04:01.225Z,18.07
2018-03-23T19:06:31.581Z,18.43
2018-03-23T19:09:02.100Z,17.23
2018-03-23T19:11:33.280Z,18.67
2018-03-23T19:14:04.078Z,16.93
2018-03-23T19:16:34.364Z,19.20
2018-03-23T19:19:04.742Z,18.30
2018-03-23T19:21:35.128Z,17.20
2018-03-23T19:24:05.733Z,18.07
2018-03-23T19:26:35.996Z,19.70
2018-03-23T19:29:06.407Z,17.23
2018-03-23T19:31:36.832Z,18.63
2018-03-23T19:34:07.409Z,18.60
2018-03-23T19:36:37.656Z,18.20
2018-03-23T19:39:08.048Z,18.20
2018-03-23T19:41:38.464Z,17.53
2018-03-23T19:44:09.080Z,19.33
2018-03-23T19:46:39.332Z,17.63
2018-03-23T19:49:09.805Z,17.40
2018-03-23T19:51:40.042Z,17.77
2018-03-23T19:54:10.930Z,17.17
2018-03-23T19:56:41.116Z,16.87
2018-03-23T19:59:11.567Z,17.97
2018-03-23T20:01:41.865Z,17.70
2018-03-23T20:04:12.358Z,16.30
2018-03-23T20:06:43.502Z,18.03
2018-03-23T20:09:14.739Z,16.13
2018-03-23T20:11:44.952Z,17.47
2018-03-23T20:14:15.472Z,18.23
2018-03-23T20:16:45.726Z,17.00
2018-03-23T20:19:15.905Z,17.87
2018-03-23T20:21:46.595Z,17.67
2018-03-23T20:24:21.346Z,17.73
2018-03-23T20:26:51.554Z,18.50
2018-03-23T20:29:22.594Z,16.50
2018-03-23T20:31:59.031Z,17.00
2018-03-23T20:34:29.380Z,19.57
2018-03-23T20:37:00.322Z,16.27
2018-03-23T20:39:30.983Z,16.17
2018-03-23T20:42:01.850Z,16.97
2018-03-23T20:44:32.200Z,17.70
2018-03-23T20:47:02.674Z,18.23
2018-03-23T20:49:33.192Z,16.80
2018-03-23T20:52:03.422Z,16.80
2018-03-23T20:54:34.952Z,18.47
2018-03-23T20:57:05.553Z,17.67
2018-03-23T20:59:35.718Z,16.67
2018-03-23T21:02:06.179Z,16.57
2018-03-23T21:04:37.903Z,17.80
2018-03-23T21:07:08.475Z,15.10
2018-03-23T21:09:39.748Z,18.10
2018-03-23T21:12:10.210Z,17.73
2018-03-23T21:14:41.193Z,15.90
2018-03-23T21:17:11.391Z,16.53
2018-03-23T21:19:41.690Z,16.10
2018-03-23T21:22:11.931Z,15.83
2018-03-23T21:24:42.483Z,16.80
2018-03-23T21:27:12.814Z,18.10
2018-03-23T21:29:43.072Z,16.90
2018-03-23T21:32:14.142Z,16.57
2018-03-23T21:34:44.604Z,15.80
2018-03-23T21:37:14.757Z,17.33
2018-03-23T21:39:45.744Z,15.23
2018-03-23T21:42:16.013Z,16.83
2018-03-23T21:44:46.800Z,16.57
2018-03-23T21:47:17.099Z,16.53
2018-03-23T21:49:47.299Z,16.50
2018-03-23T21:52:17.704Z,14.50
2018-03-23T21:54:48.917Z,15.93
2018-03-23T21:57:19.175Z,15.80
2018-03-23T21:59:49.525Z,15.83
2018-03-23T22:02:19.781Z,15.20
2018-03-23T22:04:51.241Z,13.60
2018-03-23T22:07:22.926Z,16.63
2018-03-23T22:09:54.126Z,16.13
2018-03-23T22:12:24.482Z,15.60
2018-03-23T22:14:55.976Z,12.90
2018-03-23T22:17:26.169Z,13.77
2018-03-23T22:19:57.093Z,14.30
2018-03-23T22:22:27.275Z,13.53
2018-03-23T22:24:57.971Z,14.03
2018-03-23T22:27:28.890Z,15.47
2018-03-23T22:29:59.035Z,14.07
2018-03-23T22:32:30.121Z,15.07
2018-03-23T22:35:00.639Z,13.10
2018-03-23T22:37:30.928Z,13.47
2018-03-23T22:40:02.008Z,12.33
2018-03-23T22:42:32.416Z,13.40
2018-03-23T22:45:03.162Z,14.23
2018-03-23T22:47:33.811Z,13.30
2018-03-23T22:50:04.208Z,12.33
2018-03-23T22:52:35.583Z,11.67
2018-03-23T22:55:06.511Z,12.50
2018-03-23T22:57:37.123Z,11.30
2018-03-23T23:00:07.780Z,13.07
2018-03-23T23:02:38.188Z,12.00
2018-03-23T23:05:09.811Z,12.90
2018-03-23T23:09:09.514Z,12.90
2018-03-23T23:11:39.672Z,13.00
2018-03-23T23:14:10.478Z,12.80
2018-03-23T23:16:41.586Z,12.77
2018-03-23T23:19:12.065Z,11.83
2018-03-23T23:21:42.365Z,12.57
2018-03-23T23:24:12.957Z,12.80
2018-03-23T23:26:44.882Z,12.67
2018-03-23T23:29:16.902Z,13.67
2018-03-23T23:31:47.252Z,12.20
2018-03-23T23:34:17.601Z,11.80
2018-03-23T23:36:48.171Z,11.67
2018-03-23T23:39:18.779Z,12.30
2018-03-23T23:41:49.249Z,12.37
2018-03-23T23:44:20.282Z,11.43
2018-03-23T23:46:51.192Z,11.57
2018-03-23T23:49:22.564Z,11.30
2018-03-23T23:51:53.326Z,12.50
2018-03-23T23:54:23.752Z,12.60
2018-03-23T23:56:54.143Z,12.07
2018-03-23T23:59:24.999Z,12.27
